Flight Track Log - Related Links

Times and Time Zones

All times are in EDT time to prevent confusion due to time zone crossing. See the RPA3242 flight status page for this flight to view local times or setup timezone preferences in your user account.

Time Position Orientation Groundspeed Altitude Reporting Facility
EDT Latitude Longitude Course Direction KTS MPH feet Rate Location/Type
Tue 09:19:53 PM 39.8667 -75.2833 37° Northeast 150 173 900  Level Philadelphia TRACON
Tue 09:20:35 PM 39.8333 -75.3000 201° Southwest 176 203 2,300 2,529 Climbing Philadelphia TRACON
Tue 09:21:35 PM 39.7833 -75.3500 218° Southwest 241 277 5,200 2,905 Climbing Philadelphia TRACON
Tue 09:22:00 PM 39.8167 -74.9237 90° East  Level FlightAware Approximate
Tue 09:22:41 PM 39.7167 -75.4000 210° Southwest 298 343 8,400  Level Philadelphia TRACON
Tue 09:23:00 PM 39.8067 -74.8167 105° East  Level FlightAware Approximate
Tue 09:24:00 PM 39.7857 -74.7116 105° East  Level FlightAware Approximate
Tue 09:24:41 PM 39.6769 -75.2322 107° East 312 359 12,000  Level New York Center
Tue 09:25:00 PM 39.8422 -74.6412 37° Northeast  Level FlightAware Approximate
Tue 09:25:42 PM 39.7047 -75.1017 75° East 333 383 12,000  Level New York Center
Tue 09:26:41 PM 39.7294 -74.9925 74° East 338 389 12,000 100 Level New York Center
Tue 09:27:42 PM 39.7611 -74.8622 72° East 343 395 12,200 1,289 Climbing New York Center
Tue 09:28:42 PM 39.7925 -74.7369 72° East 343 395 14,600 2,579 Climbing New York Center
Tue 09:29:43 PM 39.8622 -74.6489 44° Northeast 342 394 17,400 2,420 Climbing New York Center
Tue 09:30:41 PM 39.9292 -74.5794 38° Northeast 330 380 19,400 2,118 Climbing New York Center
Tue 09:31:42 PM 40.0106 -74.5056 35° Northeast 335 386 21,600 2,066 Climbing New York Center
Tue 09:32:43 PM 40.1011 -74.4181 36° Northeast 358 412 23,600 1,210 Climbing New York Center
Tue 09:33:41 PM 40.1864 -74.3492 32° Northeast 363 418 24,000 203 Climbing New York Center
Tue 09:34:41 PM 40.2742 -74.2775 32° Northeast 363 418 24,000  Level New York Center
Tue 09:35:41 PM 40.3617 -74.2086 31° Northeast 363 418 24,000  Level New York Center
Tue 09:36:42 PM 40.4489 -74.1392 31° Northeast 368 423 24,000  Level New York Center
Tue 09:37:41 PM 40.5364 -74.0697 31° Northeast 368 423 24,000  Level New York Center
Tue 09:38:42 PM 40.6236 -74.0003 31° Northeast 368 423 24,000  Level New York Center
Tue 09:41:08 PM 40.8353 -73.8117 34° Northeast 375 432 24,000 -29 Level Boston Center
Tue 09:42:08 PM 40.9156 -73.7117 43° Northeast 380 437 23,900 -400 Descending Boston Center
Tue 09:43:08 PM 40.9833 -73.6222 45° Northeast 380 437 23,200 -450 Descending Boston Center
Tue 09:44:08 PM 41.0756 -73.5744 21° North 374 430 23,000 -300 Descending Boston Center
Tue 09:45:08 PM 41.1672 -73.5844 355° North 323 372 22,600 -700 Descending Boston Center
Tue 09:46:08 PM 41.2608 -73.5997 353° North 318 366 21,600 -1,000 Descending Boston Center
Tue 09:47:08 PM 41.3564 -73.6153 353° North 334 384 20,600 -1,050 Descending Boston Center
Tue 09:48:08 PM 41.4500 -73.6256 355° North 339 390 19,500 -1,200 Descending Boston Center
Tue 09:49:08 PM 41.5519 -73.6411 353° North 334 384 18,200 -1,150 Descending Boston Center
Tue 09:50:08 PM 41.6436 -73.6542 354° North 334 384 17,200 -1,050 Descending Boston Center
Tue 09:51:08 PM 41.7331 -73.6642 355° North 325 374 16,100 -1,050 Descending Boston Center
Tue 09:52:08 PM 41.8206 -73.6742 355° North 325 374 15,100 -1,050 Descending Boston Center
Tue 09:52:28 PM 41.8517 -73.6858 344° North 322 371 14,700 -1,200 Descending Boston Center
Tue 09:52:58 PM 41.8914 -73.6867 359° North 320 368 14,100 -1,020 Descending Boston Center
Tue 09:54:08 PM 41.9953 -73.7000 355° North 314 361 13,000 -1,015 Descending Boston Center
Tue 09:55:08 PM 42.0847 -73.7128 354° North 314 361 11,900 -1,071 Descending Boston Center
Tue 09:56:00 PM 42.1639 -73.7231 355° North 321 369 11,000 -900 Descending Boston Center
Tue 09:57:08 PM 42.2469 -73.7386 352° North 284 327 10,100 -1,388 Descending Boston Center
Tue 09:58:01 PM 42.3136 -73.7511 352° North 256 295 8,200 -1,947 Descending Boston Center
Tue 09:59:02 PM 42.3822 -73.7639 352° North 258 297 6,400 -1,672 Descending Boston Center
Tue 10:00:03 PM 42.4528 -73.7822 349° North 255 293 4,800 -1,686 Descending Boston Center
Tue 10:01:03 PM 42.5278 -73.7925 354° North 250 288 3,000 -893 Descending Boston Center
Tue 10:02:04 PM 42.5922 -73.8022 354° North 227 261 3,000  Level Boston Center

Login

Don't have an account? Register now (free) for customized features, flight alerts, and more!